Aeroporto :
LOGIN :

Iscrizione | Disclaimer

   EN    FR    IT 

 










Sommario :    VFR   VFR Marginale   IFR   IFR Intensivo   IFR Molto Intensivo
Visibilità : 
Base nubi : 
>= 8 km
>= 3000ft
5 / 8 km
1000 / 3000 ft
1500m / 5 km
500 / 1000 ft
800 / 1500m
200 / 500 ft
< 800m
< 200 ft
Simboli :   Temporali  Nebbia  Neve Forte  Precipitazioni Forti  Vento > 20 kt
SIGMETs :   Varie  Temporali  Ghiacco  Turbolenza  Onda orograficha  Ceneri Vulcaniche







- Altitudine del aeroporto : 290 ft
- Codice IATA : OSI


LDOS - Osijek

ULTIMO METAR :
  • 170900Z 30005KT 270V340 9999 FEW030 23/18 Q1017

METARs OBSOLETI :
  • 170830Z 28004KT 190V330 9999 FEW030 23/18 Q1017
  • 170800Z 30004KT 250V070 9999 SCT030 22/17 Q1017
  • 170730Z 28004KT 230V330 9999 FEW013 SCT030 21/18 Q1018
  • 170700Z 28004KT 9999 FEW013 FEW027 21/19 Q1017
  • 170630Z 31004KT 9999 FEW010 FEW027 20/18 Q1017
  • 170600Z 32006KT 9999 FEW040 20/18 Q1017

TAF TAF LDOS
Valido dal 17 a 06 ore il 18 a 06 ore UTC


170525Z 1706/1806 30006KT 9999 FEW010 SCT030 TX27/1714Z TN19/1801Z
PROB40
TEMPO 1711/1722 32015KT 3000 TSRA SCT010 SCT020CB BKN035
PROB30
TEMPO 1722/1802 TSRA FEW020CB BKN035
Nessun NOTAM noto per questo aeroporto.



MetMap, La meteo Aeronautica in un colpo d'occhio ! - Copyright ORBIFLY Dicembre 2007 - Disclaimer

ORBIFLY MET'MAP TEAM :

Programmazione e sviluppo : Alexandra Zaïnal
Concezione e sviluppo : Baudouin d'Aumeries
Co-Programmazione e sviluppo : Marc-Olivier Méhu
Supporto tecnico e logistico : Manuel Goepfert
Aiuto per la traduzione : Arnaldo La Scala

Contatto : metmap@orbifly.com




FONTI E CREDITI :

   NOAA